sensor_id;sensor_type;location;lat;lon;timestamp;P1;durP1;ratioP1;P2;durP2;ratioP2
9234;SDS011;4652;42.716;23.218;2023-09-08T00:03:37;12.70;;;10.40;;
9234;SDS011;4652;42.716;23.218;2023-09-08T00:10:21;11.47;;;10.27;;
9234;SDS011;4652;42.716;23.218;2023-09-08T00:17:03;13.43;;;12.03;;
9234;SDS011;4652;42.716;23.218;2023-09-08T00:23:45;16.67;;;14.97;;
9234;SDS011;4652;42.716;23.218;2023-09-08T00:30:29;16.73;;;15.13;;
9234;SDS011;4652;42.716;23.218;2023-09-08T00:37:11;16.90;;;15.00;;
9234;SDS011;4652;42.716;23.218;2023-09-08T00:43:52;14.60;;;13.20;;
9234;SDS011;4652;42.716;23.218;2023-09-08T00:50:36;13.13;;;11.83;;
9234;SDS011;4652;42.716;23.218;2023-09-08T00:57:19;12.07;;;10.87;;
9234;SDS011;4652;42.716;23.218;2023-09-08T02:59:01;11.40;;;10.20;;
9234;SDS011;4652;42.716;23.218;2023-09-08T03:05:43;12.77;;;11.47;;
9234;SDS011;4652;42.716;23.218;2023-09-08T03:12:27;11.63;;;10.43;;
9234;SDS011;4652;42.716;23.218;2023-09-08T03:19:09;13.60;;;11.10;;
9234;SDS011;4652;42.716;23.218;2023-09-08T03:25:50;11.43;;;10.00;;
9234;SDS011;4652;42.716;23.218;2023-09-08T03:32:34;12.00;;;10.57;;
9234;SDS011;4652;42.716;23.218;2023-09-08T03:39:16;10.30;;;9.27;;
9234;SDS011;4652;42.716;23.218;2023-09-08T03:45:59;10.20;;;8.70;;
9234;SDS011;4652;42.716;23.218;2023-09-08T03:52:43;11.00;;;8.50;;
9234;SDS011;4652;42.716;23.218;2023-09-08T03:59:25;10.33;;;8.90;;
9234;SDS011;4652;42.716;23.218;2023-09-08T04:06:06;10.07;;;9.03;;
9234;SDS011;4652;42.716;23.218;2023-09-08T04:12:50;11.63;;;9.60;;
9234;SDS011;4652;42.716;23.218;2023-09-08T04:19:32;10.60;;;9.47;;
9234;SDS011;4652;42.716;23.218;2023-09-08T04:26:14;12.57;;;11.07;;
9234;SDS011;4652;42.716;23.218;2023-09-08T04:32:57;13.93;;;10.30;;
9234;SDS011;4652;42.716;23.218;2023-09-08T04:39:40;12.30;;;10.83;;
9234;SDS011;4652;42.716;23.218;2023-09-08T04:46:21;12.07;;;10.87;;
9234;SDS011;4652;42.716;23.218;2023-09-08T04:53:05;13.73;;;11.23;;
9234;SDS011;4652;42.716;23.218;2023-09-08T04:59:47;15.33;;;10.93;;
9234;SDS011;4652;42.716;23.218;2023-09-08T05:06:29;13.37;;;10.97;;
9234;SDS011;4652;42.716;23.218;2023-09-08T05:13:12;13.27;;;11.77;;
9234;SDS011;4652;42.716;23.218;2023-09-08T05:19:54;13.30;;;11.37;;
9234;SDS011;4652;42.716;23.218;2023-09-08T05:26:36;11.73;;;10.20;;
9234;SDS011;4652;42.716;23.218;2023-09-08T05:33:21;10.40;;;9.33;;
9234;SDS011;4652;42.716;23.218;2023-09-08T05:40:03;10.47;;;9.47;;
9234;SDS011;4652;42.716;23.218;2023-09-08T05:46:47;11.33;;;10.00;;
9234;SDS011;4652;42.716;23.218;2023-09-08T05:53:30;13.20;;;10.27;;
9234;SDS011;4652;42.716;23.218;2023-09-08T06:00:12;11.07;;;9.87;;
9234;SDS011;4652;42.716;23.218;2023-09-08T06:06:55;11.27;;;8.93;;
9234;SDS011;4652;42.716;23.218;2023-09-08T06:13:39;8.35;;;7.55;;
9234;SDS011;4652;42.716;23.218;2023-09-08T06:20:21;9.80;;;6.93;;
9234;SDS011;4652;42.716;23.218;2023-09-08T06:27:05;12.15;;;7.22;;
9234;SDS011;4652;42.716;23.218;2023-09-08T06:33:50;7.15;;;6.28;;
9234;SDS011;4652;42.716;23.218;2023-09-08T06:40:32;6.22;;;5.72;;
9234;SDS011;4652;42.716;23.218;2023-09-08T06:47:14;7.90;;;5.75;;
9234;SDS011;4652;42.716;23.218;2023-09-08T06:53:57;5.88;;;5.03;;
9234;SDS011;4652;42.716;23.218;2023-09-08T07:08:04;7.07;;;5.80;;
9234;SDS011;4652;42.716;23.218;2023-09-08T13:08:04;4.85;;;4.45;;
9234;SDS011;4652;42.716;23.218;2023-09-08T13:14:46;5.78;;;5.05;;
9234;SDS011;4652;42.716;23.218;2023-09-08T13:21:29;5.05;;;4.55;;
9234;SDS011;4652;42.716;23.218;2023-09-08T13:28:12;7.30;;;4.43;;
9234;SDS011;4652;42.716;23.218;2023-09-08T13:34:54;6.63;;;4.95;;
9234;SDS011;4652;42.716;23.218;2023-09-08T13:41:44;5.03;;;4.53;;
9234;SDS011;4652;42.716;23.218;2023-09-08T13:48:31;5.53;;;4.40;;
9234;SDS011;4652;42.716;23.218;2023-09-08T13:55:13;4.57;;;4.22;;
9234;SDS011;4652;42.716;23.218;2023-09-08T14:01:55;5.88;;;4.75;;
9234;SDS011;4652;42.716;23.218;2023-09-08T14:08:40;6.50;;;4.88;;
9234;SDS011;4652;42.716;23.218;2023-09-08T14:15:22;4.82;;;4.25;;
9234;SDS011;4652;42.716;23.218;2023-09-08T14:22:04;7.60;;;4.30;;
9234;SDS011;4652;42.716;23.218;2023-09-08T14:28:47;4.32;;;3.90;;
9234;SDS011;4652;42.716;23.218;2023-09-08T14:35:29;7.35;;;5.95;;
9234;SDS011;4652;42.716;23.218;2023-09-08T14:42:11;7.10;;;4.45;;
9234;SDS011;4652;42.716;23.218;2023-09-08T14:48:57;4.97;;;4.40;;
9234;SDS011;4652;42.716;23.218;2023-09-08T14:55:39;4.65;;;4.22;;
9234;SDS011;4652;42.716;23.218;2023-09-08T15:02:24;4.82;;;4.30;;
9234;SDS011;4652;42.716;23.218;2023-09-08T15:09:07;6.57;;;4.78;;
9234;SDS011;4652;42.716;23.218;2023-09-08T15:15:49;6.20;;;4.78;;
9234;SDS011;4652;42.716;23.218;2023-09-08T15:22:31;7.13;;;4.40;;
9234;SDS011;4652;42.716;23.218;2023-09-08T15:29:15;6.95;;;4.60;;
9234;SDS011;4652;42.716;23.218;2023-09-08T15:35:57;7.55;;;4.75;;
9234;SDS011;4652;42.716;23.218;2023-09-08T15:42:39;5.10;;;4.60;;
9234;SDS011;4652;42.716;23.218;2023-09-08T15:49:23;5.53;;;4.23;;
9234;SDS011;4652;42.716;23.218;2023-09-08T15:56:05;4.37;;;3.97;;
9234;SDS011;4652;42.716;23.218;2023-09-08T16:02:48;7.13;;;4.23;;
9234;SDS011;4652;42.716;23.218;2023-09-08T16:09:31;7.13;;;4.60;;
9234;SDS011;4652;42.716;23.218;2023-09-08T16:16:14;4.80;;;4.03;;
9234;SDS011;4652;42.716;23.218;2023-09-08T16:22:57;5.07;;;4.30;;
9234;SDS011;4652;42.716;23.218;2023-09-08T16:29:40;7.37;;;4.30;;
9234;SDS011;4652;42.716;23.218;2023-09-08T16:36:22;4.50;;;4.10;;
9234;SDS011;4652;42.716;23.218;2023-09-08T16:43:04;5.33;;;4.30;;
9234;SDS011;4652;42.716;23.218;2023-09-08T16:49:48;7.50;;;4.33;;
9234;SDS011;4652;42.716;23.218;2023-09-08T16:56:29;5.20;;;4.53;;
9234;SDS011;4652;42.716;23.218;2023-09-08T17:03:11;4.87;;;4.47;;
9234;SDS011;4652;42.716;23.218;2023-09-08T17:09:55;5.60;;;5.00;;
9234;SDS011;4652;42.716;23.218;2023-09-08T17:16:37;5.33;;;4.83;;
9234;SDS011;4652;42.716;23.218;2023-09-08T17:23:19;5.77;;;4.37;;
9234;SDS011;4652;42.716;23.218;2023-09-08T17:30:05;5.90;;;4.93;;
9234;SDS011;4652;42.716;23.218;2023-09-08T17:36:51;5.03;;;4.37;;
9234;SDS011;4652;42.716;23.218;2023-09-08T17:43:35;6.10;;;4.80;;
9234;SDS011;4652;42.716;23.218;2023-09-08T17:50:19;6.47;;;5.20;;
9234;SDS011;4652;42.716;23.218;2023-09-08T17:57:01;5.30;;;4.67;;
9234;SDS011;4652;42.716;23.218;2023-09-08T18:03:45;6.50;;;5.00;;
9234;SDS011;4652;42.716;23.218;2023-09-08T18:10:29;5.33;;;4.90;;
9234;SDS011;4652;42.716;23.218;2023-09-08T18:17:11;5.47;;;4.93;;
9234;SDS011;4652;42.716;23.218;2023-09-08T18:23:53;6.40;;;5.13;;
9234;SDS011;4652;42.716;23.218;2023-09-08T18:30:37;8.23;;;5.27;;
9234;SDS011;4652;42.716;23.218;2023-09-08T18:37:19;5.93;;;5.33;;
9234;SDS011;4652;42.716;23.218;2023-09-08T18:44:00;6.60;;;5.23;;
9234;SDS011;4652;42.716;23.218;2023-09-08T18:50:44;6.30;;;5.50;;
9234;SDS011;4652;42.716;23.218;2023-09-08T18:57:26;6.17;;;5.57;;
9234;SDS011;4652;42.716;23.218;2023-09-08T19:08:04;6.43;;;5.63;;
